Time;durP1;ratioP1;P1;durP2;ratioP2;P2;SDS_P1;SDS_P2;PMS_P1;PMS_P2;Temp;Humidity;BMP_temperature;BMP_pressure;BME280_temperature;BME280_humidity;BME280_pressure;Samples;Min_cycle;Max_cycle;Signal;HPM_P1;HPM_P2
2020/12/02 00:00:11;;;;;;;0.97;0.73;;;2.60;99.90;;;;;;5080231;28;20330;-84
2020/12/02 00:02:49;;;;;;;1.07;0.97;;;2.70;99.90;;;;;;5096181;28;20172;-83
2020/12/02 00:05:15;;;;;;;0.50;0.50;;;2.80;99.90;;;;;;5087318;28;20207;-84
2020/12/02 00:07:43;;;;;;;1.80;0.60;;;2.80;99.90;;;;;;5083863;28;20201;-83
2020/12/02 00:10:09;;;;;;;0.77;0.47;;;2.90;99.90;;;;;;5081367;28;20283;-84
2020/12/02 00:12:34;;;;;;;0.87;0.50;;;3.00;99.90;;;;;;5092075;28;20213;-85
2020/12/02 00:15:00;;;;;;;1.23;1.10;;;2.90;99.90;;;;;;5090559;28;20185;-84
2020/12/02 00:17:25;;;;;;;0.77;0.77;;;2.90;99.90;;;;;;5082821;28;20644;-83
2020/12/02 00:19:52;;;;;;;0.77;0.50;;;2.80;99.90;;;;;;5089500;28;20272;-83
2020/12/02 00:22:22;;;;;;;0.93;0.70;;;2.80;99.90;;;;;;5088720;28;20188;-84
2020/12/02 00:24:50;;;;;;;0.30;0.30;;;2.70;99.90;;;;;;5089749;28;20173;-84
2020/12/02 00:27:28;;;;;;;0.40;0.40;;;2.70;99.90;;;;;;5084992;28;20620;-83
2020/12/02 00:29:54;;;;;;;0.93;0.50;;;2.70;99.90;;;;;;5081855;28;20200;-84
2020/12/02 00:32:39;;;;;;;0.77;0.50;;;2.80;99.90;;;;;;5088008;28;20187;-83
2020/12/02 00:35:09;;;;;;;1.07;0.73;;;2.90;99.90;;;;;;5095338;28;20657;-83
2020/12/02 00:37:35;;;;;;;1.50;0.70;;;3.10;99.90;;;;;;5084464;28;20212;-84
2020/12/02 00:40:00;;;;;;;1.10;0.93;;;3.00;99.90;;;;;;5078908;28;20234;-84
2020/12/02 00:42:26;;;;;;;1.07;0.97;;;2.90;99.90;;;;;;5088388;28;20220;-84
2020/12/02 00:44:52;;;;;;;0.50;0.50;;;2.90;99.90;;;;;;5092406;28;20180;-83
2020/12/02 00:47:23;;;;;;;0.40;0.40;;;2.90;99.90;;;;;;5094963;28;20678;-84
2020/12/02 00:49:51;;;;;;;0.70;0.70;;;2.80;99.90;;;;;;5088546;28;20258;-84
2020/12/02 00:52:18;;;;;;;0.57;0.43;;;2.80;99.90;;;;;;5090917;28;20181;-85
2020/12/02 00:54:44;;;;;;;2.27;1.13;;;2.80;99.90;;;;;;5080065;28;20327;-84
2020/12/02 00:57:12;;;;;;;1.90;1.67;;;2.70;99.90;;;;;;5084737;28;20184;-83
2020/12/02 00:59:40;;;;;;;2.57;1.67;;;2.70;99.90;;;;;;5086563;28;20209;-84
2020/12/02 01:02:08;;;;;;;0.83;0.73;;;2.60;99.90;;;;;;5083475;28;20250;-84
2020/12/02 01:04:37;;;;;;;0.77;0.77;;;2.70;99.90;;;;;;5082476;28;20192;-84
2020/12/02 01:07:03;;;;;;;0.40;0.20;;;2.70;99.90;;;;;;5080065;28;20671;-84
2020/12/02 01:09:28;;;;;;;0.80;0.50;;;2.60;99.90;;;;;;5082469;28;20579;-84
2020/12/02 01:11:58;;;;;;;0.90;0.90;;;2.60;99.90;;;;;;5097133;28;20201;-85
2020/12/02 01:14:25;;;;;;;0.77;0.60;;;2.60;99.90;;;;;;5088020;28;20235;-84
2020/12/02 01:16:53;;;;;;;1.00;1.00;;;2.70;99.90;;;;;;5088790;28;20253;-84
2020/12/02 01:19:26;;;;;;;0.30;0.30;;;2.70;99.90;;;;;;5078014;28;20334;-85
2020/12/02 01:21:58;;;;;;;0.80;0.80;;;2.70;99.90;;;;;;5089801;28;20187;-84
2020/12/02 01:24:31;;;;;;;2.83;1.03;;;2.70;99.90;;;;;;5079842;28;20207;-84
2020/12/02 01:27:14;;;;;;;0.63;0.63;;;2.60;99.90;;;;;;5083680;28;20192;-83
2020/12/02 01:29:41;;;;;;;0.47;0.40;;;2.70;99.90;;;;;;5072948;28;20216;-84
2020/12/02 01:32:07;;;;;;;3.50;0.57;;;2.70;99.90;;;;;;5095931;28;20532;-85
2020/12/02 01:34:33;;;;;;;0.53;0.53;;;2.80;99.90;;;;;;5081756;28;20223;-84
2020/12/02 01:37:16;;;;;;;1.57;1.47;;;2.80;99.90;;;;;;5088574;28;20181;-85
2020/12/02 01:39:50;;;;;;;0.40;0.30;;;2.80;99.90;;;;;;5082249;28;20220;-84
2020/12/02 01:42:15;;;;;;;0.60;0.60;;;2.80;99.90;;;;;;5085010;28;20185;-85
2020/12/02 01:44:41;;;;;;;0.83;0.67;;;2.80;99.90;;;;;;5084384;28;20176;-83
2020/12/02 01:47:37;;;;;;;0.93;0.93;;;2.90;99.90;;;;;;5084766;28;20260;-84
2020/12/02 01:50:29;;;;;;;0.30;0.30;;;2.80;99.90;;;;;;5053617;28;20216;-84
2020/12/02 01:53:14;;;;;;;0.30;0.30;;;2.70;99.90;;;;;;5076093;28;20276;-84
2020/12/02 01:55:45;;;;;;;2.57;0.77;;;2.70;99.90;;;;;;5088150;28;21112;-84
2020/12/02 01:58:22;;;;;;;0.83;0.70;;;2.70;99.90;;;;;;5078967;28;20232;-85
2020/12/02 02:00:57;;;;;;;0.33;0.33;;;2.70;99.90;;;;;;5073364;28;20207;-84
2020/12/02 02:03:23;;;;;;;2.00;0.83;;;2.80;99.90;;;;;;5087735;28;20187;-84
2020/12/02 02:05:58;;;;;;;1.13;0.73;;;2.80;99.90;;;;;;5082525;28;20555;-84
2020/12/02 02:08:30;;;;;;;0.50;0.43;;;2.90;99.90;;;;;;5071632;28;20189;-84
2020/12/02 02:10:59;;;;;;;0.73;0.67;;;3.00;99.90;;;;;;5088436;28;20188;-85
2020/12/02 02:13:58;;;;;;;0.43;0.30;;;3.00;99.90;;;;;;5084315;28;20667;-84
2020/12/02 02:16:33;;;;;;;0.20;0.20;;;3.00;99.90;;;;;;5077601;28;20243;-84
2020/12/02 02:18:59;;;;;;;0.43;0.27;;;3.00;99.90;;;;;;5093102;28;20203;-84
2020/12/02 02:21:30;;;;;;;1.17;0.63;;;3.00;99.90;;;;;;5082389;28;20702;-86
2020/12/02 02:23:55;;;;;;;0.50;0.50;;;2.90;99.90;;;;;;5078435;28;20181;-84
2020/12/02 02:26:27;;;;;;;0.50;0.50;;;3.00;99.90;;;;;;5082727;28;20185;-84
2020/12/02 02:28:55;;;;;;;0.33;0.30;;;3.00;99.90;;;;;;5083404;28;20213;-84
2020/12/02 02:31:25;;;;;;;1.10;1.00;;;3.20;99.90;;;;;;5076509;28;20188;-84
2020/12/02 02:33:51;;;;;;;1.47;0.57;;;3.40;99.90;;;;;;5076836;28;20282;-85
2020/12/02 02:36:21;;;;;;;1.50;0.87;;;3.60;99.90;;;;;;5083905;28;20218;-84
2020/12/02 02:38:47;;;;;;;0.43;0.43;;;3.70;99.90;;;;;;5080733;28;20250;-84
2020/12/02 02:41:12;;;;;;;0.40;0.40;;;3.80;99.90;;;;;;5078902;28;20256;-84
2020/12/02 02:43:39;;;;;;;0.17;0.17;;;3.80;99.90;;;;;;5101121;28;20232;-85
2020/12/02 02:46:05;;;;;;;5.53;0.30;;;3.80;99.90;;;;;;5087494;28;20192;-85
2020/12/02 02:48:32;;;;;;;0.30;0.30;;;3.90;99.90;;;;;;5079185;28;20201;-85
2020/12/02 02:50:58;;;;;;;0.20;0.20;;;4.00;99.90;;;;;;5080545;28;20195;-85
2020/12/02 02:53:25;;;;;;;0.27;0.20;;;4.00;99.90;;;;;;5075272;28;20295;-84
2020/12/02 02:55:52;;;;;;;0.57;0.53;;;4.10;99.90;;;;;;5079813;28;20645;-85
2020/12/02 02:58:18;;;;;;;0.97;0.47;;;4.00;99.90;;;;;;5076509;28;20182;-85
2020/12/02 03:00:44;;;;;;;1.33;0.50;;;3.80;99.90;;;;;;5083541;28;20254;-85
2020/12/02 03:03:12;;;;;;;0.47;0.47;;;3.90;99.90;;;;;;5074855;28;20185;-84
2020/12/02 03:05:38;;;;;;;0.20;0.20;;;4.00;99.90;;;;;;5082798;28;20215;-84
2020/12/02 03:08:07;;;;;;;1.23;0.60;;;4.10;99.90;;;;;;5073937;28;20189;-85
2020/12/02 03:10:36;;;;;;;0.20;0.20;;;4.20;99.90;;;;;;5074892;28;20181;-84
2020/12/02 03:13:36;;;;;;;0.97;0.60;;;4.20;99.90;;;;;;5077627;28;20209;-85
2020/12/02 03:16:08;;;;;;;0.27;0.23;;;3.90;99.90;;;;;;5063796;28;20571;-84
2020/12/02 03:18:34;;;;;;;0.10;0.10;;;3.90;99.90;;;;;;5075408;28;20197;-84
2020/12/02 03:21:04;;;;;;;0.30;0.30;;;3.80;99.90;;;;;;5086853;28;20229;-85
2020/12/02 03:23:30;;;;;;;0.10;0.10;;;3.80;99.90;;;;;;5085154;28;20185;-83
2020/12/02 03:25:56;;;;;;;0.10;0.10;;;3.70;99.90;;;;;;5083276;28;20181;-83
2020/12/02 03:28:28;;;;;;;0.57;0.57;;;3.50;99.90;;;;;;5080967;28;20200;-84
2020/12/02 03:30:54;;;;;;;0.50;0.50;;;3.50;99.90;;;;;;5088923;28;20240;-83
2020/12/02 03:33:20;;;;;;;0.20;0.20;;;3.70;99.90;;;;;;5081503;28;20395;-83
2020/12/02 03:35:45;;;;;;;0.13;0.13;;;3.70;99.90;;;;;;5078448;28;20186;-84
2020/12/02 03:38:11;;;;;;;1.40;1.00;;;3.50;99.90;;;;;;5076392;28;20176;-83
2020/12/02 03:40:40;;;;;;;0.87;0.50;;;3.60;99.90;;;;;;5087233;28;20205;-84
2020/12/02 03:43:05;;;;;;;2.63;1.00;;;3.40;99.90;;;;;;5090141;28;20185;-84
2020/12/02 03:45:31;;;;;;;0.90;0.60;;;3.50;99.90;;;;;;5084356;28;20203;-83
2020/12/02 03:47:56;;;;;;;0.37;0.33;;;3.40;99.90;;;;;;5079063;28;20276;-84
2020/12/02 03:50:22;;;;;;;0.73;0.30;;;3.40;99.90;;;;;;5084243;28;20212;-85
2020/12/02 03:52:47;;;;;;;0.60;0.47;;;3.30;99.90;;;;;;5092180;28;20212;-84
2020/12/02 03:55:13;;;;;;;0.63;0.63;;;3.40;99.90;;;;;;5079534;28;20184;-83
2020/12/02 03:57:39;;;;;;;1.17;0.83;;;3.20;99.90;;;;;;5075496;28;20177;-84
2020/12/02 04:00:10;;;;;;;1.60;0.60;;;3.10;99.90;;;;;;5077272;28;20211;-85
2020/12/02 04:02:36;;;;;;;0.40;0.33;;;3.10;99.90;;;;;;5079125;28;20173;-84
2020/12/02 04:05:04;;;;;;;0.20;0.20;;;3.00;99.90;;;;;;5097617;28;20186;-84
2020/12/02 04:07:30;;;;;;;0.87;0.63;;;3.00;99.90;;;;;;5082774;28;20177;-84
2020/12/02 04:09:55;;;;;;;0.67;0.67;;;3.00;99.90;;;;;;5090214;28;20633;-84
2020/12/02 04:12:21;;;;;;;1.07;0.63;;;2.90;99.90;;;;;;5086424;28;20192;-84
2020/12/02 04:14:46;;;;;;;1.33;1.33;;;2.90;99.90;;;;;;5083494;28;20210;-84
2020/12/02 04:17:12;;;;;;;5.40;0.70;;;2.90;99.90;;;;;;5079449;28;20173;-84
2020/12/02 04:19:37;;;;;;;1.33;0.90;;;2.80;99.90;;;;;;5081984;28;20237;-83
2020/12/02 04:22:03;;;;;;;0.17;0.17;;;2.90;99.90;;;;;;5083861;28;20177;-84
2020/12/02 04:24:29;;;;;;;0.20;0.20;;;2.90;99.90;;;;;;5076595;28;20189;-84
2020/12/02 04:26:54;;;;;;;4.10;0.60;;;3.00;99.90;;;;;;5079964;28;20195;-84
2020/12/02 04:29:20;;;;;;;2.73;1.90;;;3.10;99.90;;;;;;5084383;28;20285;-84
2020/12/02 04:31:45;;;;;;;0.57;0.30;;;3.00;99.90;;;;;;5087909;28;20263;-85
2020/12/02 04:34:11;;;;;;;0.40;0.40;;;3.00;99.90;;;;;;5095527;28;20232;-84
2020/12/02 04:36:36;;;;;;;0.73;0.40;;;3.00;99.90;;;;;;5090030;28;20176;-84
2020/12/02 04:39:03;;;;;;;5.30;0.63;;;3.00;99.90;;;;;;5078130;28;20209;-84
2020/12/02 04:41:33;;;;;;;1.20;0.53;;;3.00;99.90;;;;;;5069866;28;20187;-83
2020/12/02 04:43:59;;;;;;;0.10;0.10;;;3.00;99.90;;;;;;5084278;28;20216;-82
2020/12/02 04:46:31;;;;;;;1.87;0.70;;;3.00;99.90;;;;;;5080941;28;21105;-83
2020/12/02 04:49:09;;;;;;;1.00;1.00;;;3.00;99.90;;;;;;5074555;28;20744;-84
2020/12/02 04:51:34;;;;;;;0.80;0.80;;;2.90;99.90;;;;;;5076416;28;20188;-82
2020/12/02 04:54:00;;;;;;;7.73;0.60;;;2.90;99.90;;;;;;5076130;28;20257;-83
2020/12/02 04:56:27;;;;;;;0.50;0.50;;;2.80;99.90;;;;;;5079880;28;20210;-83
2020/12/02 04:58:54;;;;;;;1.20;0.97;;;2.80;99.90;;;;;;5083300;28;20205;-83
2020/12/02 05:01:20;;;;;;;0.50;0.50;;;2.70;99.90;;;;;;5090608;28;20488;-83
2020/12/02 05:04:03;;;;;;;0.70;0.33;;;2.70;99.90;;;;;;5072762;28;20209;-83
2020/12/02 05:06:41;;;;;;;0.80;0.80;;;2.70;99.90;;;;;;5081253;28;20180;-83
2020/12/02 05:09:11;;;;;;;0.60;0.60;;;2.70;99.90;;;;;;5078702;28;20223;-83
2020/12/02 05:11:39;;;;;;;0.80;0.80;;;2.70;99.90;;;;;;5085356;28;20214;-83
2020/12/02 05:14:10;;;;;;;2.13;1.10;;;2.70;99.90;;;;;;5077609;28;20289;-83
2020/12/02 05:16:36;;;;;;;1.17;1.07;;;2.80;99.90;;;;;;5076142;28;20177;-82
2020/12/02 05:19:22;;;;;;;0.80;0.80;;;2.70;99.90;;;;;;5088048;28;20615;-84
2020/12/02 05:21:47;;;;;;;0.90;0.87;;;2.80;99.90;;;;;;5070303;28;20287;-84
2020/12/02 05:24:16;;;;;;;0.30;0.30;;;2.80;99.90;;;;;;5072676;28;20620;-83
2020/12/02 05:26:49;;;;;;;0.20;0.20;;;2.80;99.90;;;;;;5072180;28;20676;-83
2020/12/02 05:29:27;;;;;;;0.77;0.50;;;2.80;99.90;;;;;;5071890;28;20287;-83
2020/12/02 05:32:01;;;;;;;2.40;1.40;;;2.80;99.90;;;;;;5079186;28;20180;-83
2020/12/02 05:34:30;;;;;;;0.80;0.80;;;2.80;99.90;;;;;;5071208;28;20708;-85
2020/12/02 05:36:57;;;;;;;0.97;0.87;;;2.80;99.90;;;;;;5077087;28;20216;-82
2020/12/02 05:39:32;;;;;;;1.03;0.93;;;2.90;99.90;;;;;;5076653;28;20207;-82
2020/12/02 05:41:59;;;;;;;0.63;0.43;;;2.90;99.90;;;;;;5079160;28;20276;-83
2020/12/02 05:44:34;;;;;;;0.60;0.60;;;2.80;99.90;;;;;;5071141;28;20254;-83
2020/12/02 05:47:06;;;;;;;7.20;0.63;;;2.80;99.90;;;;;;5079474;28;20219;-83
2020/12/02 05:49:43;;;;;;;0.83;0.77;;;2.80;99.90;;;;;;5082083;28;20586;-83
2020/12/02 05:52:38;;;;;;;0.73;0.73;;;2.90;99.90;;;;;;5073629;28;20234;-82
2020/12/02 05:55:27;;;;;;;3.93;1.43;;;2.80;99.90;;;;;;5098183;28;20211;-83
2020/12/02 05:58:12;;;;;;;0.37;0.37;;;2.90;99.90;;;;;;5073106;28;20299;-83
2020/12/02 06:00:37;;;;;;;2.33;0.93;;;2.80;99.90;;;;;;5072039;28;20165;-82
2020/12/02 06:03:05;;;;;;;2.80;1.17;;;2.80;99.90;;;;;;5071964;28;20188;-83
2020/12/02 06:05:30;;;;;;;0.67;0.67;;;2.90;99.90;;;;;;5088760;28;20227;-83
2020/12/02 06:08:02;;;;;;;0.57;0.57;;;3.00;99.90;;;;;;5084365;28;20209;-82
2020/12/02 06:10:55;;;;;;;0.37;0.37;;;2.90;99.90;;;;;;5086866;28;20201;-83
2020/12/02 06:13:46;;;;;;;1.00;0.33;;;2.90;99.90;;;;;;5075864;28;20209;-83
2020/12/02 06:16:35;;;;;;;3.00;0.80;;;3.00;99.90;;;;;;5072926;28;20188;-84
2020/12/02 06:19:09;;;;;;;0.50;0.50;;;3.10;99.90;;;;;;5072075;28;20681;-84
2020/12/02 06:21:42;;;;;;;1.07;1.07;;;3.10;99.90;;;;;;5080597;28;20168;-84
2020/12/02 06:24:11;;;;;;;1.30;0.80;;;3.20;99.90;;;;;;5092474;28;20181;-84
2020/12/02 06:26:41;;;;;;;0.30;0.30;;;3.30;99.90;;;;;;5075512;28;20962;-84
2020/12/02 06:29:33;;;;;;;0.40;0.40;;;3.30;99.90;;;;;;5073578;28;20295;-84
2020/12/02 06:32:17;;;;;;;1.23;0.87;;;3.20;99.90;;;;;;5068055;28;20250;-84
2020/12/02 06:34:43;;;;;;;0.73;0.73;;;3.10;99.90;;;;;;5072189;28;20595;-84
2020/12/02 06:37:16;;;;;;;0.77;0.77;;;2.90;99.90;;;;;;5079222;28;20191;-84
2020/12/02 06:39:48;;;;;;;1.83;1.17;;;3.00;99.90;;;;;;5077849;28;20189;-83
2020/12/02 06:42:34;;;;;;;7.53;1.17;;;3.10;99.90;;;;;;5077621;28;20282;-82
2020/12/02 06:45:10;;;;;;;0.47;0.47;;;2.90;99.90;;;;;;5081081;28;20181;-82
2020/12/02 06:47:54;;;;;;;1.90;0.57;;;2.80;99.90;;;;;;5077728;28;20176;-82
2020/12/02 06:50:27;;;;;;;0.67;0.67;;;2.90;99.90;;;;;;5071512;28;20701;-82
2020/12/02 06:52:56;;;;;;;0.93;0.90;;;3.10;99.90;;;;;;5075734;28;20196;-82
2020/12/02 06:55:27;;;;;;;1.03;0.70;;;3.10;99.90;;;;;;5082500;28;20244;-82
2020/12/02 06:58:02;;;;;;;1.77;0.87;;;3.10;99.90;;;;;;5073818;28;20207;-82
2020/12/02 07:00:30;;;;;;;0.37;0.33;;;3.10;99.90;;;;;;5081916;28;20281;-81
2020/12/02 07:03:02;;;;;;;1.50;0.53;;;3.30;99.90;;;;;;5079255;28;20181;-81
2020/12/02 07:05:41;;;;;;;2.37;1.07;;;3.30;99.90;;;;;;5082817;28;20275;-81
2020/12/02 07:08:09;;;;;;;0.93;0.93;;;3.00;99.90;;;;;;5079649;28;20185;-81
2020/12/02 07:10:35;;;;;;;0.63;0.63;;;3.00;99.90;;;;;;5080640;28;20185;-81
2020/12/02 07:13:01;;;;;;;1.17;1.07;;;2.70;99.90;;;;;;5077443;28;20585;-83
2020/12/02 07:15:27;;;;;;;1.03;0.70;;;2.90;99.90;;;;;;5072347;28;20202;-83
2020/12/02 07:17:53;;;;;;;1.37;1.00;;;2.90;99.90;;;;;;5077617;28;20215;-82
2020/12/02 07:20:20;;;;;;;1.63;1.53;;;3.10;99.90;;;;;;5094427;28;20229;-83
2020/12/02 07:22:51;;;;;;;1.17;1.10;;;3.00;99.90;;;;;;5082828;28;20181;-83
2020/12/02 07:25:16;;;;;;;1.53;1.43;;;3.10;99.90;;;;;;5083563;28;20168;-82
2020/12/02 07:27:45;;;;;;;1.57;0.57;;;3.10;99.90;;;;;;5071196;28;20188;-82
2020/12/02 07:30:33;;;;;;;0.83;0.33;;;3.20;99.90;;;;;;5087261;28;20266;-82
2020/12/02 07:33:28;;;;;;;1.03;0.60;;;3.40;99.90;;;;;;5075832;28;20243;-83
2020/12/02 07:36:14;;;;;;;0.30;0.30;;;3.60;99.90;;;;;;5053985;28;20188;-83
2020/12/02 07:38:40;;;;;;;0.53;0.50;;;3.80;99.90;;;;;;5083685;28;20196;-83
2020/12/02 07:41:24;;;;;;;1.03;0.47;;;3.40;99.90;;;;;;5083237;28;20268;-83
2020/12/02 07:43:51;;;;;;;3.60;1.37;;;3.50;99.90;;;;;;5074943;28;20272;-84
2020/12/02 07:46:21;;;;;;;0.37;0.37;;;3.30;99.90;;;;;;5083517;28;20237;-84
2020/12/02 07:48:52;;;;;;;1.77;1.30;;;3.40;99.90;;;;;;5080889;28;20208;-81
2020/12/02 07:51:27;;;;;;;2.70;0.93;;;2.90;99.90;;;;;;5080776;28;20238;-82
2020/12/02 07:53:54;;;;;;;2.70;1.00;;;2.90;99.90;;;;;;5083504;28;20207;-83
2020/12/02 07:56:40;;;;;;;2.43;0.57;;;2.80;99.90;;;;;;5076713;28;20653;-83
2020/12/02 07:59:26;;;;;;;1.80;1.33;;;2.90;99.90;;;;;;5079386;28;20213;-83
2020/12/02 08:02:00;;;;;;;1.80;1.47;;;3.00;99.90;;;;;;5080667;28;20182;-83
2020/12/02 08:04:32;;;;;;;1.27;0.60;;;3.00;99.90;;;;;;5080196;28;20187;-82
2020/12/02 08:07:10;;;;;;;0.47;0.47;;;2.90;99.90;;;;;;5074553;28;20189;-82
2020/12/02 08:09:41;;;;;;;0.73;0.73;;;2.80;99.90;;;;;;5085037;28;20620;-83
2020/12/02 08:12:24;;;;;;;0.93;0.93;;;2.90;99.90;;;;;;5082115;28;20633;-82
2020/12/02 08:15:05;;;;;;;2.67;2.47;;;3.10;99.90;;;;;;5076725;28;20783;-84
2020/12/02 08:17:32;;;;;;;9.97;0.70;;;3.10;99.90;;;;;;5082180;28;20235;-82
2020/12/02 08:20:00;;;;;;;0.73;0.30;;;3.00;99.90;;;;;;5084255;28;20205;-82
2020/12/02 08:22:43;;;;;;;1.37;0.50;;;3.10;99.90;;;;;;5081336;28;20192;-82
2020/12/02 08:25:23;;;;;;;1.77;0.67;;;3.10;99.90;;;;;;5074885;28;20524;-82
2020/12/02 08:27:50;;;;;;;0.40;0.40;;;3.20;99.90;;;;;;5077778;28;20538;-83
2020/12/02 08:30:21;;;;;;;0.47;0.47;;;3.20;99.90;;;;;;5088898;28;20207;-83
2020/12/02 08:33:12;;;;;;;0.50;0.37;;;3.20;99.90;;;;;;5093329;28;20594;-83
2020/12/02 08:35:49;;;;;;;0.20;0.20;;;2.90;99.90;;;;;;5076988;28;20203;-83
2020/12/02 08:38:27;;;;;;;0.83;0.57;;;3.10;99.90;;;;;;5078454;28;20264;-83
2020/12/02 08:40:55;;;;;;;0.37;0.37;;;3.20;99.90;;;;;;5075388;28;20275;-84
2020/12/02 08:43:43;;;;;;;2.27;0.57;;;3.20;99.90;;;;;;5081489;28;20192;-82
2020/12/02 08:46:22;;;;;;;0.10;0.10;;;3.30;99.90;;;;;;5082799;28;20208;-83
2020/12/02 08:49:07;;;;;;;0.40;0.40;;;3.10;99.90;;;;;;5082696;28;20832;-83
2020/12/02 08:51:32;;;;;;;0.43;0.40;;;3.30;99.90;;;;;;5075622;28;20192;-83
2020/12/02 08:54:10;;;;;;;1.13;0.80;;;3.20;99.90;;;;;;5083570;28;20579;-82
2020/12/02 08:56:37;;;;;;;1.10;1.07;;;3.10;99.90;;;;;;5078326;28;20175;-83
2020/12/02 08:59:05;;;;;;;1.13;0.43;;;2.90;99.90;;;;;;5086688;28;20197;-83
2020/12/02 09:01:31;;;;;;;6.13;0.47;;;2.80;99.90;;;;;;5086013;28;20458;-83
2020/12/02 09:03:56;;;;;;;1.13;1.13;;;2.80;99.90;;;;;;5084223;28;20215;-83
2020/12/02 09:06:23;;;;;;;1.53;0.90;;;2.80;99.90;;;;;;5088978;28;20189;-83
2020/12/02 09:08:50;;;;;;;0.70;0.70;;;2.70;99.90;;;;;;5081340;28;20596;-84
2020/12/02 09:11:23;;;;;;;1.10;1.00;;;2.80;99.90;;;;;;5080867;28;20960;-83
2020/12/02 09:13:49;;;;;;;0.93;0.50;;;2.80;99.90;;;;;;5078532;28;20197;-83
2020/12/02 09:16:20;;;;;;;0.87;0.67;;;2.90;99.90;;;;;;5073738;28;20193;-84
2020/12/02 09:18:45;;;;;;;0.67;0.63;;;3.10;99.90;;;;;;5085616;28;20274;-84
2020/12/02 09:21:11;;;;;;;0.40;0.40;;;3.00;99.90;;;;;;5075608;28;20191;-84
2020/12/02 09:23:37;;;;;;;1.73;0.83;;;3.00;99.90;;;;;;5070849;28;20272;-82
2020/12/02 09:26:02;;;;;;;0.50;0.50;;;2.80;99.90;;;;;;5084368;28;20276;-83
2020/12/02 09:28:28;;;;;;;0.80;0.80;;;3.00;99.90;;;;;;5073416;28;20245;-84
2020/12/02 09:30:53;;;;;;;2.13;1.00;;;3.00;99.90;;;;;;5085329;28;20182;-83
2020/12/02 09:33:19;;;;;;;2.03;0.67;;;2.90;99.90;;;;;;5094389;28;20196;-83
2020/12/02 09:35:44;;;;;;;0.83;0.53;;;2.90;99.90;;;;;;5089673;28;20183;-83
2020/12/02 09:38:10;;;;;;;0.87;0.87;;;3.00;99.90;;;;;;5087826;28;20185;-83
2020/12/02 09:40:35;;;;;;;1.43;1.20;;;3.00;99.90;;;;;;5079291;28;20199;-83
2020/12/02 09:43:11;;;;;;;1.60;1.50;;;2.80;99.90;;;;;;5080112;28;20185;-82
2020/12/02 09:45:59;;;;;;;1.40;1.03;;;2.70;99.90;;;;;;5083701;28;20268;-83
2020/12/02 09:48:26;;;;;;;0.90;0.70;;;2.70;99.90;;;;;;5070858;28;20193;-81
2020/12/02 09:50:52;;;;;;;0.77;0.77;;;2.50;99.90;;;;;;5083377;28;20187;-81
2020/12/02 09:53:30;;;;;;;1.63;1.20;;;2.40;99.90;;;;;;5080206;28;20205;-81
2020/12/02 09:55:56;;;;;;;1.53;1.03;;;2.50;99.90;;;;;;5072617;28;20180;-81
2020/12/02 09:58:23;;;;;;;10.50;1.20;;;2.50;99.90;;;;;;5080569;28;20656;-82
2020/12/02 10:00:56;;;;;;;1.20;0.53;;;2.50;99.90;;;;;;5073057;28;20583;-81
2020/12/02 10:03:47;;;;;;;1.00;1.00;;;2.60;99.90;;;;;;5092748;28;20199;-80
2020/12/02 10:06:52;;;;;;;0.67;0.47;;;2.70;99.90;;;;;;5057537;28;20737;-80
2020/12/02 10:09:17;;;;;;;1.27;0.67;;;2.70;99.90;;;;;;5077741;28;20217;-81
2020/12/02 10:12:04;;;;;;;0.77;0.70;;;2.70;99.90;;;;;;5086259;28;20224;-80
2020/12/02 10:15:02;;;;;;;1.07;0.83;;;2.90;99.90;;;;;;5081094;28;20212;-79
2020/12/02 10:18:02;;;;;;;1.60;0.67;;;2.90;99.90;;;;;;5086831;28;20202;-80
2020/12/02 10:20:34;;;;;;;0.40;0.20;;;2.90;99.90;;;;;;5042047;28;20215;-79
2020/12/02 10:23:32;;;;;;;0.60;0.60;;;2.90;99.90;;;;;;5079827;28;20269;-80
2020/12/02 10:26:21;;;;;;;0.73;0.73;;;2.90;99.90;;;;;;5077508;28;20656;-79
2020/12/02 10:28:59;;;;;;;0.43;0.43;;;2.80;99.90;;;;;;5080228;28;20553;-80
2020/12/02 10:31:50;;;;;;;0.53;0.53;;;2.90;99.90;;;;;;5087572;28;20187;-80
2020/12/02 10:34:22;;;;;;;1.10;0.97;;;3.00;99.90;;;;;;5070917;28;20212;-80
2020/12/02 10:36:56;;;;;;;2.90;0.83;;;3.00;99.90;;;;;;5082085;28;20177;-80
2020/12/02 10:39:30;;;;;;;0.77;0.73;;;3.00;99.90;;;;;;5072092;28;20564;-80
2020/12/02 10:42:17;;;;;;;2.87;1.37;;;3.00;99.90;;;;;;5073199;28;20196;-81
2020/12/02 10:44:54;;;;;;;1.13;0.50;;;3.00;99.90;;;;;;5078161;28;20188;-80
2020/12/02 10:47:41;;;;;;;0.33;0.33;;;3.20;99.90;;;;;;5082360;28;20669;-80
2020/12/02 10:50:08;;;;;;;0.63;0.63;;;3.10;99.90;;;;;;5071165;28;20291;-79
2020/12/02 10:52:34;;;;;;;0.97;0.97;;;3.10;99.90;;;;;;5090377;28;20195;-80
2020/12/02 10:55:01;;;;;;;0.20;0.20;;;3.10;99.90;;;;;;5073175;28;20219;-79
2020/12/02 10:57:26;;;;;;;0.53;0.53;;;3.00;99.90;;;;;;5077657;28;20648;-80
2020/12/02 10:59:55;;;;;;;2.63;0.70;;;3.20;99.90;;;;;;5070617;28;20204;-80
2020/12/02 11:02:27;;;;;;;0.20;0.20;;;3.40;99.90;;;;;;5072682;28;20794;-80
2020/12/02 11:04:54;;;;;;;1.13;1.13;;;3.50;99.90;;;;;;5079507;28;20318;-80
2020/12/02 11:07:38;;;;;;;0.60;0.60;;;3.50;99.90;;;;;;5072073;28;20188;-80
2020/12/02 11:10:26;;;;;;;0.63;0.30;;;3.70;99.90;;;;;;5070924;28;20684;-80
2020/12/02 11:13:12;;;;;;;4.83;0.83;;;3.70;99.90;;;;;;5084282;28;20215;-81
2020/12/02 11:15:56;;;;;;;0.60;0.60;;;3.60;99.90;;;;;;5086362;28;20200;-80
2020/12/02 11:18:54;;;;;;;0.50;0.50;;;3.70;99.90;;;;;;5070617;28;20177;-81
2020/12/02 11:21:42;;;;;;;1.37;0.60;;;3.60;99.90;;;;;;5069572;28;20181;-81
2020/12/02 11:24:43;;;;;;;1.17;1.07;;;3.60;99.90;;;;;;5070779;28;20280;-81
2020/12/02 11:27:09;;;;;;;0.20;0.20;;;3.90;99.90;;;;;;5070307;28;20185;-81
2020/12/02 11:29:37;;;;;;;2.13;0.80;;;3.90;99.90;;;;;;5077698;28;20225;-80
2020/12/02 11:32:11;;;;;;;0.60;0.30;;;4.10;99.90;;;;;;5082234;28;20189;-81
2020/12/02 11:35:02;;;;;;;0.13;0.13;;;4.30;99.90;;;;;;5077589;28;20210;-81
2020/12/02 11:37:48;;;;;;;1.33;0.70;;;4.30;99.90;;;;;;5074349;28;20197;-81
2020/12/02 11:40:22;;;;;;;0.40;0.40;;;4.50;99.90;;;;;;5086966;28;20202;-81
2020/12/02 11:42:59;;;;;;;0.50;0.50;;;4.60;99.90;;;;;;5100560;28;20186;-82
2020/12/02 11:45:29;;;;;;;0.90;0.70;;;4.50;99.90;;;;;;5079806;28;20184;-82
2020/12/02 11:48:25;;;;;;;0.30;0.30;;;4.30;99.90;;;;;;5082230;28;20653;-81
2020/12/02 11:51:02;;;;;;;1.03;0.93;;;4.30;99.90;;;;;;5082661;28;20192;-81
2020/12/02 11:53:33;;;;;;;0.90;0.57;;;4.30;99.90;;;;;;5078680;28;20209;-81
2020/12/02 11:56:00;;;;;;;1.33;1.17;;;4.10;99.90;;;;;;5087526;28;20309;-81
2020/12/02 11:58:25;;;;;;;0.63;0.60;;;4.00;99.90;;;;;;5085148;28;20259;-81
2020/12/02 12:01:11;;;;;;;0.97;0.47;;;3.90;99.90;;;;;;5081000;28;20658;-81
2020/12/02 12:03:43;;;;;;;1.00;0.37;;;4.20;99.90;;;;;;5075833;28;20253;-81
2020/12/02 12:06:17;;;;;;;0.20;0.20;;;3.90;99.90;;;;;;5090846;28;20186;-81
2020/12/02 12:08:59;;;;;;;1.80;1.33;;;4.00;99.90;;;;;;5090537;28;20238;-81
2020/12/02 12:11:33;;;;;;;1.23;1.13;;;4.10;99.90;;;;;;5075741;28;20190;-81
2020/12/02 12:14:23;;;;;;;2.10;0.47;;;4.10;99.90;;;;;;5079379;28;20293;-81
2020/12/02 12:17:13;;;;;;;0.80;0.80;;;4.20;99.90;;;;;;5079489;28;20190;-81
2020/12/02 12:19:53;;;;;;;0.63;0.63;;;4.20;99.90;;;;;;5083745;28;20281;-80
2020/12/02 12:22:34;;;;;;;0.30;0.30;;;4.40;99.90;;;;;;5082048;28;20312;-81
2020/12/02 12:25:06;;;;;;;1.10;0.63;;;4.10;99.90;;;;;;5081425;28;20177;-81
2020/12/02 12:27:32;;;;;;;0.67;0.67;;;4.10;99.90;;;;;;5081901;28;20186;-82
2020/12/02 12:29:58;;;;;;;1.80;0.40;;;4.10;99.90;;;;;;5080416;28;20206;-83
2020/12/02 12:32:56;;;;;;;1.23;1.20;;;4.30;99.90;;;;;;5076577;28;20201;-80
2020/12/02 12:35:26;;;;;;;0.63;0.37;;;4.20;99.90;;;;;;5080433;28;20784;-81
2020/12/02 12:38:07;;;;;;;0.23;0.23;;;4.10;99.90;;;;;;5083865;28;20188;-81
2020/12/02 12:40:42;;;;;;;0.33;0.33;;;4.00;99.90;;;;;;5074496;28;20698;-81
2020/12/02 12:43:12;;;;;;;0.20;0.20;;;3.90;99.90;;;;;;5074240;28;20808;-81
2020/12/02 12:45:45;;;;;;;2.40;0.83;;;4.00;99.90;;;;;;5077132;28;20888;-81
2020/12/02 12:48:19;;;;;;;1.17;0.40;;;3.80;99.90;;;;;;5088262;28;20275;-81
2020/12/02 12:50:47;;;;;;;0.50;0.50;;;3.60;99.90;;;;;;5080625;28;20189;-80
2020/12/02 12:53:14;;;;;;;1.13;0.70;;;3.70;99.90;;;;;;5076308;28;20210;-81
2020/12/02 12:55:40;;;;;;;0.27;0.27;;;3.50;99.90;;;;;;5073179;28;20185;-81
2020/12/02 12:58:14;;;;;;;1.07;0.97;;;3.40;99.90;;;;;;5072311;28;20638;-80
2020/12/02 13:00:49;;;;;;;0.20;0.20;;;3.60;99.90;;;;;;5071207;28;20200;-81
2020/12/02 13:03:22;;;;;;;0.10;0.10;;;3.80;99.90;;;;;;5090523;28;20196;-80
2020/12/02 13:06:05;;;;;;;1.07;0.90;;;4.00;99.90;;;;;;5078082;28;20186;-81
2020/12/02 13:08:42;;;;;;;1.23;0.50;;;3.70;99.90;;;;;;5075307;28;20289;-80
2020/12/02 13:11:16;;;;;;;0.23;0.23;;;3.50;99.90;;;;;;5075131;28;20196;-81
2020/12/02 13:14:09;;;;;;;0.97;0.47;;;3.70;99.90;;;;;;5080887;28;20876;-81
2020/12/02 13:16:46;;;;;;;0.10;0.10;;;3.90;99.90;;;;;;5076722;28;20246;-80
2020/12/02 13:19:37;;;;;;;0.10;0.10;;;4.00;99.90;;;;;;5083219;28;20224;-80
2020/12/02 13:22:16;;;;;;;0.60;0.60;;;4.10;99.90;;;;;;5080859;28;20653;-80
2020/12/02 13:24:48;;;;;;;0.30;0.20;;;4.20;99.90;;;;;;5094897;28;20185;-80
2020/12/02 13:27:50;;;;;;;0.57;0.57;;;4.30;99.90;;;;;;5088952;28;20223;-80